sensor_id;sensor_type;location;lat;lon;timestamp;pressure;altitude;pressure_sealevel;temperature;humidity
73692;BME280;61996;49.910;35.562;2024-03-08T14:55:58;99393.28;;;18.24;37.83
73692;BME280;61996;49.910;35.562;2024-03-08T14:59:01;99384.72;;;18.11;37.68
73692;BME280;61996;49.910;35.562;2024-03-08T15:02:06;99380.53;;;18.08;38.46
73692;BME280;61996;49.910;35.562;2024-03-08T15:05:10;99375.22;;;18.08;38.69
73692;BME280;61996;49.910;35.562;2024-03-08T15:08:14;99375.63;;;18.03;38.68
73692;BME280;61996;49.910;35.562;2024-03-08T15:11:23;99370.72;;;17.99;38.71
73692;BME280;61996;49.910;35.562;2024-03-08T15:14:27;99378.00;;;17.97;38.75
73692;BME280;61996;49.910;35.562;2024-03-08T15:17:30;99365.41;;;17.89;38.72
73692;BME280;61996;49.910;35.562;2024-03-08T15:20:33;99373.94;;;17.93;38.87
73692;BME280;61996;49.910;35.562;2024-03-08T15:23:36;99367.38;;;17.87;38.84
73692;BME280;61996;49.910;35.562;2024-03-08T15:26:40;99370.59;;;17.81;39.00
73692;BME280;61996;49.910;35.562;2024-03-08T15:29:44;99368.47;;;17.85;38.81
73692;BME280;61996;49.910;35.562;2024-03-08T15:32:50;99381.91;;;17.83;38.78
73692;BME280;61996;49.910;35.562;2024-03-08T15:35:58;99377.84;;;17.79;38.99
73692;BME280;61996;49.910;35.562;2024-03-08T15:39:05;99369.16;;;17.77;38.83
73692;BME280;61996;49.910;35.562;2024-03-08T15:42:13;99370.16;;;17.76;39.01
73692;BME280;61996;49.910;35.562;2024-03-08T15:45:16;99385.34;;;17.64;39.33
73692;BME280;61996;49.910;35.562;2024-03-08T15:48:19;99377.28;;;17.75;38.97
73692;BME280;61996;49.910;35.562;2024-03-08T15:51:22;99382.75;;;17.74;39.08
73692;BME280;61996;49.910;35.562;2024-03-08T15:54:25;99375.16;;;17.69;39.07
73692;BME280;61996;49.910;35.562;2024-03-08T15:57:30;99377.94;;;17.68;39.03
73692;BME280;61996;49.910;35.562;2024-03-08T16:00:33;99381.59;;;17.67;39.11
73692;BME280;61996;49.910;35.562;2024-03-08T16:03:37;99370.50;;;17.62;39.20
73692;BME280;61996;49.910;35.562;2024-03-08T16:06:40;99374.00;;;17.62;39.23
73692;BME280;61996;49.910;35.562;2024-03-08T16:09:43;99381.00;;;17.63;38.99
73692;BME280;61996;49.910;35.562;2024-03-08T16:12:48;99382.81;;;17.63;39.13
73692;BME280;61996;49.910;35.562;2024-03-08T16:15:51;99380.31;;;17.61;39.01
73692;BME280;61996;49.910;35.562;2024-03-08T16:18:56;99371.50;;;17.61;39.16
73692;BME280;61996;49.910;35.562;2024-03-08T16:21:59;99371.91;;;17.56;39.18
73692;BME280;61996;49.910;35.562;2024-03-08T16:25:02;99382.00;;;17.62;39.09
73692;BME280;61996;49.910;35.562;2024-03-08T16:28:07;99377.50;;;17.63;39.29
73692;BME280;61996;49.910;35.562;2024-03-08T16:31:12;99377.06;;;17.58;39.37
73692;BME280;61996;49.910;35.562;2024-03-08T16:34:16;99369.25;;;17.56;39.47
73692;BME280;61996;49.910;35.562;2024-03-08T16:37:19;99376.38;;;17.56;39.56
73692;BME280;61996;49.910;35.562;2024-03-08T16:40:23;99367.72;;;17.53;39.59
73692;BME280;61996;49.910;35.562;2024-03-08T16:43:28;99383.06;;;17.50;39.50
73692;BME280;61996;49.910;35.562;2024-03-08T16:46:31;99373.09;;;17.83;39.30
73692;BME280;61996;49.910;35.562;2024-03-08T16:49:40;99378.28;;;17.44;39.39
73692;BME280;61996;49.910;35.562;2024-03-08T16:52:44;99368.94;;;17.40;39.49
73692;BME280;61996;49.910;35.562;2024-03-08T16:55:47;99362.06;;;17.37;39.59
73692;BME280;61996;49.910;35.562;2024-03-08T16:58:54;99365.97;;;17.33;39.61
73692;BME280;61996;49.910;35.562;2024-03-08T17:01:57;99367.78;;;17.33;39.66
73692;BME280;61996;49.910;35.562;2024-03-08T17:05:02;99363.56;;;17.30;39.79
73692;BME280;61996;49.910;35.562;2024-03-08T17:08:07;99365.53;;;17.28;39.92
73692;BME280;61996;49.910;35.562;2024-03-08T17:11:12;99359.50;;;17.26;39.88
73692;BME280;61996;49.910;35.562;2024-03-08T17:14:22;99355.19;;;17.25;39.70
73692;BME280;61996;49.910;35.562;2024-03-08T17:17:25;99358.78;;;17.24;39.98
73692;BME280;61996;49.910;35.562;2024-03-08T17:20:28;99354.72;;;17.20;40.02
73692;BME280;61996;49.910;35.562;2024-03-08T17:23:31;99353.75;;;17.21;39.93
73692;BME280;61996;49.910;35.562;2024-03-08T17:26:35;99358.47;;;17.17;39.97
73692;BME280;61996;49.910;35.562;2024-03-08T17:29:40;99354.28;;;17.15;39.82
73692;BME280;61996;49.910;35.562;2024-03-08T17:32:43;99350.94;;;17.13;39.97
73692;BME280;61996;49.910;35.562;2024-03-08T17:35:46;99356.25;;;17.13;39.99
73692;BME280;61996;49.910;35.562;2024-03-08T17:38:49;99353.84;;;17.10;39.87
73692;BME280;61996;49.910;35.562;2024-03-08T17:41:52;99357.47;;;17.09;39.92
73692;BME280;61996;49.910;35.562;2024-03-08T17:44:56;99352.16;;;17.09;39.90
73692;BME280;61996;49.910;35.562;2024-03-08T17:48:02;99358.47;;;17.08;39.99
73692;BME280;61996;49.910;35.562;2024-03-08T17:51:06;99359.59;;;17.05;40.04
73692;BME280;61996;49.910;35.562;2024-03-08T17:54:09;99357.91;;;17.04;40.10
73692;BME280;61996;49.910;35.562;2024-03-08T17:57:15;99357.03;;;17.04;39.95
73692;BME280;61996;49.910;35.562;2024-03-08T18:00:21;99348.38;;;17.02;39.84
73692;BME280;61996;49.910;35.562;2024-03-08T18:03:27;99355.97;;;17.16;40.05
73692;BME280;61996;49.910;35.562;2024-03-08T18:06:30;99350.28;;;17.30;39.42
73692;BME280;61996;49.910;35.562;2024-03-08T18:09:33;99357.03;;;17.44;38.91
73692;BME280;61996;49.910;35.562;2024-03-08T18:12:36;99354.97;;;17.57;38.85
73692;BME280;61996;49.910;35.562;2024-03-08T18:15:40;99340.13;;;17.64;38.91
73692;BME280;61996;49.910;35.562;2024-03-08T18:18:43;99347.19;;;17.75;38.88
73692;BME280;61996;49.910;35.562;2024-03-08T18:21:47;99339.34;;;17.83;38.72
73692;BME280;61996;49.910;35.562;2024-03-08T18:24:50;99336.41;;;17.86;39.02
73692;BME280;61996;49.910;35.562;2024-03-08T18:27:53;99344.41;;;17.96;38.66
73692;BME280;61996;49.910;35.562;2024-03-08T18:30:58;99336.69;;;18.02;38.55
73692;BME280;61996;49.910;35.562;2024-03-08T18:34:01;99333.75;;;18.05;38.79
73692;BME280;61996;49.910;35.562;2024-03-08T18:37:07;99330.53;;;18.12;38.65
73692;BME280;61996;49.910;35.562;2024-03-08T18:40:14;99333.16;;;18.21;38.35
73692;BME280;61996;49.910;35.562;2024-03-08T18:43:17;99332.31;;;18.21;38.04
73692;BME280;61996;49.910;35.562;2024-03-08T18:46:23;99335.00;;;18.30;38.31
73692;BME280;61996;49.910;35.562;2024-03-08T18:49:27;99331.34;;;18.31;38.27
73692;BME280;61996;49.910;35.562;2024-03-08T18:52:31;99333.59;;;18.36;38.27
73692;BME280;61996;49.910;35.562;2024-03-08T18:55:34;99326.28;;;18.38;38.38
73692;BME280;61996;49.910;35.562;2024-03-08T18:58:37;99335.66;;;18.42;38.17
73692;BME280;61996;49.910;35.562;2024-03-08T19:01:48;99334.56;;;18.45;38.24
73692;BME280;61996;49.910;35.562;2024-03-08T19:04:52;99327.25;;;18.47;37.84
73692;BME280;61996;49.910;35.562;2024-03-08T19:07:56;99336.38;;;18.44;38.14
73692;BME280;61996;49.910;35.562;2024-03-08T19:11:03;99331.16;;;18.43;38.23
73692;BME280;61996;49.910;35.562;2024-03-08T19:14:07;99329.78;;;18.39;38.40
73692;BME280;61996;49.910;35.562;2024-03-08T19:17:15;99326.72;;;18.33;38.42
73692;BME280;61996;49.910;35.562;2024-03-08T19:20:18;99326.16;;;18.30;38.46
73692;BME280;61996;49.910;35.562;2024-03-08T19:23:22;99322.09;;;18.26;38.49
73692;BME280;61996;49.910;35.562;2024-03-08T19:26:25;99315.53;;;18.20;38.54
73692;BME280;61996;49.910;35.562;2024-03-08T19:29:28;99317.19;;;18.21;38.69
73692;BME280;61996;49.910;35.562;2024-03-08T19:32:32;99319.59;;;18.15;38.46
73692;BME280;61996;49.910;35.562;2024-03-08T19:35:35;99318.06;;;18.12;38.53
73692;BME280;61996;49.910;35.562;2024-03-08T19:38:38;99321.13;;;18.07;38.48
73692;BME280;61996;49.910;35.562;2024-03-08T19:41:42;99318.75;;;18.04;38.52
73692;BME280;61996;49.910;35.562;2024-03-08T19:44:44;99313.84;;;18.00;38.49
73692;BME280;61996;49.910;35.562;2024-03-08T19:47:52;99318.63;;;17.96;38.50
73692;BME280;61996;49.910;35.562;2024-03-08T19:50:55;99308.25;;;17.93;38.57
73692;BME280;61996;49.910;35.562;2024-03-08T19:54:04;99309.38;;;17.91;38.52
73692;BME280;61996;49.910;35.562;2024-03-08T19:57:08;99308.84;;;17.87;38.43
73692;BME280;61996;49.910;35.562;2024-03-08T20:00:12;99293.16;;;17.84;38.71
73692;BME280;61996;49.910;35.562;2024-03-08T20:03:18;99303.25;;;17.80;38.71
73692;BME280;61996;49.910;35.562;2024-03-08T20:06:25;99301.00;;;17.76;38.65
73692;BME280;61996;49.910;35.562;2024-03-08T20:09:28;99289.53;;;17.75;38.68
73692;BME280;61996;49.910;35.562;2024-03-08T20:12:31;99295.94;;;17.73;38.60
73692;BME280;61996;49.910;35.562;2024-03-08T20:15:34;99281.06;;;17.70;39.10
73692;BME280;61996;49.910;35.562;2024-03-08T20:18:43;99288.38;;;17.68;39.06
73692;BME280;61996;49.910;35.562;2024-03-08T20:21:49;99284.16;;;17.66;39.11
73692;BME280;61996;49.910;35.562;2024-03-08T20:24:52;99286.13;;;17.64;39.21
73692;BME280;61996;49.910;35.562;2024-03-08T20:27:55;99295.38;;;17.60;39.14
73692;BME280;61996;49.910;35.562;2024-03-08T20:31:02;99284.84;;;17.58;39.20
73692;BME280;61996;49.910;35.562;2024-03-08T20:34:07;99294.09;;;17.54;39.54
73692;BME280;61996;49.910;35.562;2024-03-08T20:37:11;99285.28;;;17.53;39.35
73692;BME280;61996;49.910;35.562;2024-03-08T20:40:15;99278.41;;;17.51;39.37
73692;BME280;61996;49.910;35.562;2024-03-08T20:43:25;99284.00;;;17.48;39.49
73692;BME280;61996;49.910;35.562;2024-03-08T20:46:28;99276.03;;;17.48;39.44
73692;BME280;61996;49.910;35.562;2024-03-08T20:49:33;99270.97;;;17.45;39.50
73692;BME280;61996;49.910;35.562;2024-03-08T20:52:36;99271.41;;;17.40;39.59
73692;BME280;61996;49.910;35.562;2024-03-08T20:55:39;99268.75;;;17.40;39.64
73692;BME280;61996;49.910;35.562;2024-03-08T20:58:44;99262.84;;;17.37;39.60
73692;BME280;61996;49.910;35.562;2024-03-08T21:01:47;99264.13;;;17.33;39.73
73692;BME280;61996;49.910;35.562;2024-03-08T21:04:51;99265.66;;;17.35;39.86
73692;BME280;61996;49.910;35.562;2024-03-08T21:07:54;99258.53;;;17.36;39.74
73692;BME280;61996;49.910;35.562;2024-03-08T21:10:57;99259.50;;;17.35;39.77
73692;BME280;61996;49.910;35.562;2024-03-08T21:14:01;99258.97;;;17.41;39.27
73692;BME280;61996;49.910;35.562;2024-03-08T21:17:04;99253.91;;;17.57;39.17
73692;BME280;61996;49.910;35.562;2024-03-08T21:20:09;99250.84;;;17.62;39.20
73692;BME280;61996;49.910;35.562;2024-03-08T21:23:13;99259.13;;;17.78;38.91
73692;BME280;61996;49.910;35.562;2024-03-08T21:26:16;99251.72;;;17.82;39.14
73692;BME280;61996;49.910;35.562;2024-03-08T21:29:20;99249.19;;;17.90;39.06
73692;BME280;61996;49.910;35.562;2024-03-08T21:32:23;99253.38;;;18.02;38.87
73692;BME280;61996;49.910;35.562;2024-03-08T21:35:29;99249.44;;;18.06;38.88
73692;BME280;61996;49.910;35.562;2024-03-08T21:38:35;99242.84;;;18.10;38.89
73692;BME280;61996;49.910;35.562;2024-03-08T21:41:39;99241.16;;;18.19;38.65
73692;BME280;61996;49.910;35.562;2024-03-08T21:44:42;99252.84;;;18.45;38.39
73692;BME280;61996;49.910;35.562;2024-03-08T21:47:45;99244.88;;;18.35;38.48
73692;BME280;61996;49.910;35.562;2024-03-08T21:50:50;99243.34;;;18.33;38.97
73692;BME280;61996;49.910;35.562;2024-03-08T21:53:52;99245.75;;;18.36;38.79
73692;BME280;61996;49.910;35.562;2024-03-08T21:56:56;99243.19;;;18.44;38.70
73692;BME280;61996;49.910;35.562;2024-03-08T21:59:59;99241.63;;;18.42;38.70
73692;BME280;61996;49.910;35.562;2024-03-08T22:03:02;99228.19;;;18.43;38.65
73692;BME280;61996;49.910;35.562;2024-03-08T22:06:08;99224.94;;;18.49;38.44
73692;BME280;61996;49.910;35.562;2024-03-08T22:09:13;99233.91;;;18.48;38.32
73692;BME280;61996;49.910;35.562;2024-03-08T22:12:16;99233.31;;;18.54;38.39
73692;BME280;61996;49.910;35.562;2024-03-08T22:15:21;99218.19;;;18.55;38.32
73692;BME280;61996;49.910;35.562;2024-03-08T22:18:24;99218.03;;;18.56;38.32
73692;BME280;61996;49.910;35.562;2024-03-08T22:21:33;99225.59;;;18.61;38.19
73692;BME280;61996;49.910;35.562;2024-03-08T22:24:36;99225.44;;;18.62;38.14
73692;BME280;61996;49.910;35.562;2024-03-08T22:27:41;99231.47;;;18.65;38.15
73692;BME280;61996;49.910;35.562;2024-03-08T22:30:44;99223.22;;;18.68;38.08
73692;BME280;61996;49.910;35.562;2024-03-08T22:33:48;99221.22;;;18.70;37.97
73692;BME280;61996;49.910;35.562;2024-03-08T22:36:54;99224.44;;;18.73;38.23
73692;BME280;61996;49.910;35.562;2024-03-08T22:39:57;99224.13;;;18.76;37.81
73692;BME280;61996;49.910;35.562;2024-03-08T22:43:03;99217.53;;;18.80;38.19
73692;BME280;61996;49.910;35.562;2024-03-08T22:46:08;99222.88;;;18.80;37.87
73692;BME280;61996;49.910;35.562;2024-03-08T22:49:12;99221.72;;;18.83;37.85
73692;BME280;61996;49.910;35.562;2024-03-08T22:52:18;99216.69;;;18.80;37.96
73692;BME280;61996;49.910;35.562;2024-03-08T22:55:21;99223.53;;;18.82;37.94
73692;BME280;61996;49.910;35.562;2024-03-08T22:58:24;99229.03;;;18.81;37.91
73692;BME280;61996;49.910;35.562;2024-03-08T23:01:27;99215.56;;;18.82;37.99
73692;BME280;61996;49.910;35.562;2024-03-08T23:04:35;99220.59;;;18.85;37.99
73692;BME280;61996;49.910;35.562;2024-03-08T23:07:40;99214.97;;;18.88;37.89
73692;BME280;61996;49.910;35.562;2024-03-08T23:10:43;99217.63;;;18.88;37.69
73692;BME280;61996;49.910;35.562;2024-03-08T23:13:46;99202.19;;;18.92;37.87
73692;BME280;61996;49.910;35.562;2024-03-08T23:16:48;99209.19;;;18.93;37.87
73692;BME280;61996;49.910;35.562;2024-03-08T23:19:51;99208.72;;;18.98;37.77
73692;BME280;61996;49.910;35.562;2024-03-08T23:22:58;99200.72;;;18.98;37.86
73692;BME280;61996;49.910;35.562;2024-03-08T23:26:06;99201.88;;;18.95;37.74
73692;BME280;61996;49.910;35.562;2024-03-08T23:29:09;99202.03;;;18.94;37.87
73692;BME280;61996;49.910;35.562;2024-03-08T23:32:14;99198.69;;;18.92;37.92
73692;BME280;61996;49.910;35.562;2024-03-08T23:35:17;99210.78;;;18.86;38.08
73692;BME280;61996;49.910;35.562;2024-03-08T23:38:22;99205.75;;;18.83;38.03
73692;BME280;61996;49.910;35.562;2024-03-08T23:41:26;99205.38;;;18.78;38.13
73692;BME280;61996;49.910;35.562;2024-03-08T23:44:30;99203.28;;;18.72;38.04
73692;BME280;61996;49.910;35.562;2024-03-08T23:47:33;99208.06;;;18.68;38.01
73692;BME280;61996;49.910;35.562;2024-03-08T23:50:36;99201.34;;;18.64;37.93
73692;BME280;61996;49.910;35.562;2024-03-08T23:53:41;99203.75;;;18.57;38.14
73692;BME280;61996;49.910;35.562;2024-03-08T23:56:44;99203.03;;;18.55;38.14
73692;BME280;61996;49.910;35.562;2024-03-08T23:59:47;99205.31;;;18.50;38.30
